createdAt,value
2018-08-18T00:00:30.889Z,101326.36
2018-08-18T00:03:00.434Z,101327.09
2018-08-18T00:05:29.993Z,101325.78
2018-08-18T00:07:59.553Z,101330.59
2018-08-18T00:10:29.281Z,101330.87
2018-08-18T00:12:59.003Z,101332.30
2018-08-18T00:15:28.569Z,101333.43
2018-08-18T00:17:58.724Z,101335.33
2018-08-18T00:20:28.253Z,101338.63
2018-08-18T00:22:57.854Z,101331.64
2018-08-18T00:25:27.392Z,101331.64
2018-08-18T00:27:58.729Z,101335.98
2018-08-18T00:30:29.208Z,101330.42
2018-08-18T00:32:59.102Z,101330.31
2018-08-18T00:35:28.763Z,101326.62
2018-08-18T00:37:58.346Z,101332.33
2018-08-18T00:40:27.964Z,101326.65
2018-08-18T00:42:57.485Z,101327.42
2018-08-18T00:45:27.254Z,101329.97
2018-08-18T00:47:56.826Z,101326.10
2018-08-18T00:50:40.360Z,101333.16
2018-08-18T00:53:11.001Z,101332.88
2018-08-18T00:55:40.565Z,101336.27
2018-08-18T00:58:18.389Z,101333.37
2018-08-18T01:00:53.611Z,101338.18
2018-08-18T01:03:23.368Z,101336.38
2018-08-18T01:05:52.845Z,101347.60
2018-08-18T01:08:22.658Z,101346.18
2018-08-18T01:10:52.274Z,101352.09
2018-08-18T01:13:21.893Z,101352.38
2018-08-18T01:15:52.575Z,101344.46
2018-08-18T01:18:22.281Z,101352.59
2018-08-18T01:20:52.187Z,101352.58
2018-08-18T01:23:21.792Z,101360.74
2018-08-18T01:25:51.359Z,101363.88
2018-08-18T01:28:20.899Z,101363.88
2018-08-18T01:31:06.839Z,101360.38
2018-08-18T01:33:37.621Z,101360.02
2018-08-18T01:36:07.460Z,101361.63
2018-08-18T01:38:37.992Z,101362.77
2018-08-18T01:41:20.014Z,101364.08
2018-08-18T01:44:10.176Z,101364.26
2018-08-18T01:46:40.111Z,101365.59
2018-08-18T01:49:24.999Z,101367.84
2018-08-18T01:51:54.713Z,101365.63
2018-08-18T01:54:24.234Z,101369.69
2018-08-18T01:56:59.190Z,101369.30
2018-08-18T01:59:28.778Z,101370.44
2018-08-18T02:01:58.333Z,101366.38
2018-08-18T02:04:28.240Z,101367.62
2018-08-18T02:07:13.485Z,101369.23
2018-08-18T02:09:43.361Z,101369.59
2018-08-18T02:12:13.254Z,101366.66
2018-08-18T02:14:43.252Z,101373.08
2018-08-18T02:17:33.406Z,101371.41
2018-08-18T02:20:03.123Z,101369.59
2018-08-18T02:22:33.236Z,101370.80
2018-08-18T02:25:02.933Z,101373.08
2018-08-18T02:27:32.797Z,101363.66
2018-08-18T02:30:16.277Z,101360.74
2018-08-18T02:32:45.869Z,101356.57
2018-08-18T02:35:15.504Z,101357.89
2018-08-18T02:37:45.245Z,101359.50
2018-08-18T02:40:16.943Z,101352.61
2018-08-18T02:42:46.483Z,101354.97
2018-08-18T02:45:16.967Z,101360.02
2018-08-18T02:47:46.822Z,101359.91
2018-08-18T02:50:16.624Z,101358.84
2018-08-18T02:52:46.314Z,101360.91
2018-08-18T02:55:16.524Z,101367.09
2018-08-18T02:57:46.201Z,101364.28
2018-08-18T03:00:24.684Z,101351.45
2018-08-18T03:02:54.714Z,101365.78
2018-08-18T03:05:24.531Z,101367.48
2018-08-18T03:07:54.102Z,101370.11
2018-08-18T03:10:25.069Z,101364.84
2018-08-18T03:12:59.814Z,101364.63
2018-08-18T03:16:09.115Z,101361.17
2018-08-18T03:18:46.752Z,101360.41
2018-08-18T03:21:17.055Z,101360.24
2018-08-18T03:24:03.478Z,101364.66
2018-08-18T03:27:03.601Z,101363.39
2018-08-18T03:29:52.716Z,101363.45
2018-08-18T03:32:26.012Z,101374.71
2018-08-18T03:34:56.004Z,101373.49
2018-08-18T03:37:30.554Z,101377.61
2018-08-18T03:40:00.170Z,101384.61
2018-08-18T03:42:35.929Z,101385.43
2018-08-18T03:47:51.333Z,101388.27
2018-08-18T03:50:20.990Z,101389.66
2018-08-18T03:52:50.581Z,101394.66
2018-08-18T03:55:33.119Z,101387.26
2018-08-18T03:58:02.680Z,101386.80
2018-08-18T04:00:32.274Z,101389.95
2018-08-18T04:03:02.202Z,101394.99
2018-08-18T04:05:31.797Z,101390.28
2018-08-18T04:08:01.401Z,101403.45
2018-08-18T04:10:30.991Z,101400.06
2018-08-18T04:13:01.633Z,101402.27
2018-08-18T04:15:31.200Z,101400.63
2018-08-18T04:18:05.313Z,101402.53
2018-08-18T04:20:34.813Z,101398.84
2018-08-18T04:23:04.414Z,101400.69
2018-08-18T04:25:33.954Z,101407.44
2018-08-18T04:28:03.523Z,101404.36
2018-08-18T04:30:33.074Z,101404.00
2018-08-18T04:33:03.936Z,101413.72
2018-08-18T04:35:34.061Z,101411.64
2018-08-18T04:38:04.444Z,101415.59
2018-08-18T04:40:36.622Z,101413.88
2018-08-18T04:43:06.189Z,101420.77
2018-08-18T04:45:35.895Z,101416.75
2018-08-18T04:48:05.978Z,101424.85
2018-08-18T04:50:35.612Z,101425.09
2018-08-18T04:53:09.016Z,101414.91
2018-08-18T04:55:38.623Z,101419.66
2018-08-18T04:58:08.242Z,101422.65
2018-08-18T05:00:37.889Z,101431.18
2018-08-18T05:03:07.749Z,101422.26
2018-08-18T05:05:37.330Z,101418.38
2018-08-18T05:08:13.457Z,101434.41
2018-08-18T05:10:42.990Z,101421.11
2018-08-18T05:13:43.043Z,101431.94
2018-08-18T05:16:12.607Z,101429.01
2018-08-18T05:18:42.234Z,101430.23
2018-08-18T05:21:11.855Z,101428.84
2018-08-18T05:23:41.557Z,101428.28
2018-08-18T05:26:11.229Z,101408.56
2018-08-18T05:28:40.938Z,101424.47
2018-08-18T05:31:10.546Z,101426.54
2018-08-18T05:33:40.241Z,101406.52
2018-08-18T05:36:10.969Z,101424.66
2018-08-18T05:38:41.975Z,101426.28
2018-08-18T05:41:11.908Z,101431.15
2018-08-18T05:43:41.606Z,101431.34
2018-08-18T05:46:11.388Z,101429.86
2018-08-18T05:48:40.959Z,101429.13
2018-08-18T05:51:10.846Z,101418.88
2018-08-18T05:53:40.519Z,101420.13
2018-08-18T05:56:10.081Z,101426.58
2018-08-18T05:58:51.979Z,101429.05
2018-08-18T06:01:28.615Z,101420.97
2018-08-18T06:04:04.195Z,101418.73
2018-08-18T06:06:34.159Z,101420.30
2018-08-18T06:09:04.569Z,101424.59
2018-08-18T06:11:34.162Z,101425.09
2018-08-18T06:14:03.761Z,101436.05
2018-08-18T06:16:33.385Z,101431.77
2018-08-18T06:19:03.300Z,101437.45
2018-08-18T06:24:29.651Z,101438.13
2018-08-18T06:26:59.200Z,101441.46
2018-08-18T06:29:29.755Z,101449.94
2018-08-18T06:32:01.795Z,101441.49
2018-08-18T06:34:33.027Z,101447.84
2018-08-18T06:37:03.146Z,101450.09
2018-08-18T06:39:51.114Z,101451.10
2018-08-18T06:42:34.042Z,101445.90
2018-08-18T06:45:05.324Z,101448.55
2018-08-18T06:47:34.942Z,101452.61
2018-08-18T06:50:06.040Z,101456.78
2018-08-18T06:52:35.593Z,101456.89
2018-08-18T06:55:06.734Z,101454.55
2018-08-18T06:57:43.555Z,101459.72
2018-08-18T07:00:15.518Z,101462.50
2018-08-18T07:02:45.114Z,101456.52
2018-08-18T07:05:15.840Z,101464.64
2018-08-18T07:07:46.108Z,101461.83
2018-08-18T07:10:35.719Z,101460.01
2018-08-18T07:13:06.998Z,101451.59
2018-08-18T07:15:44.755Z,101457.70
2018-08-18T07:18:15.598Z,101455.47
2018-08-18T07:20:45.455Z,101452.86
2018-08-18T07:23:15.010Z,101450.00
2018-08-18T07:25:50.776Z,101456.89
2018-08-18T07:28:21.954Z,101456.45
2018-08-18T07:30:51.736Z,101462.66
2018-08-18T07:33:22.062Z,101450.19
2018-08-18T07:35:51.664Z,101455.32
2018-08-18T07:38:21.364Z,101457.36
2018-08-18T07:40:53.448Z,101456.86
2018-08-18T07:43:26.474Z,101454.16
2018-08-18T07:45:57.954Z,101457.50
2018-08-18T07:48:27.868Z,101448.21
2018-08-18T07:50:57.486Z,101455.83
2018-08-18T07:53:27.226Z,101436.84
2018-08-18T07:56:02.470Z,101456.70
2018-08-18T07:58:32.747Z,101455.15
2018-08-18T08:01:04.979Z,101456.95
2018-08-18T08:03:37.011Z,101462.04
2018-08-18T08:06:11.516Z,101464.11
2018-08-18T08:08:46.205Z,101465.66
2018-08-18T08:11:15.778Z,101467.86
2018-08-18T08:13:45.333Z,101459.27
2018-08-18T08:16:14.838Z,101465.05
2018-08-18T08:18:44.716Z,101459.46
2018-08-18T08:21:14.279Z,101454.83
2018-08-18T08:23:43.838Z,101452.57
2018-08-18T08:26:13.727Z,101459.49
2018-08-18T08:28:43.290Z,101462.81
2018-08-18T08:31:12.849Z,101460.72
2018-08-18T08:33:42.631Z,101462.81
2018-08-18T08:36:15.794Z,101460.92
2018-08-18T08:38:58.663Z,101466.45
2018-08-18T08:41:33.643Z,101464.56
2018-08-18T08:44:05.523Z,101466.47
2018-08-18T08:46:52.100Z,101460.25
2018-08-18T08:49:29.030Z,101456.55
2018-08-18T08:51:59.479Z,101456.57
2018-08-18T08:54:35.608Z,101462.05
2018-08-18T08:57:07.636Z,101445.89
2018-08-18T08:59:39.025Z,101443.64
2018-08-18T09:02:14.335Z,101452.65
2018-08-18T09:04:44.169Z,101457.41
2018-08-18T09:07:14.194Z,101445.23
2018-08-18T09:09:44.157Z,101447.03
2018-08-18T09:12:13.911Z,101444.61
2018-08-18T09:14:43.909Z,101451.63
2018-08-18T09:17:14.402Z,101448.68
2018-08-18T09:19:44.701Z,101440.39
2018-08-18T09:22:14.780Z,101445.05
2018-08-18T09:24:44.826Z,101436.52
2018-08-18T09:27:15.265Z,101428.28
2018-08-18T09:29:45.087Z,101433.48
2018-08-18T09:32:37.993Z,101438.73
2018-08-18T09:35:07.966Z,101435.00
2018-08-18T09:37:37.899Z,101434.23
2018-08-18T09:40:08.021Z,101424.88
2018-08-18T09:42:37.956Z,101421.79
2018-08-18T09:45:31.698Z,101423.03
2018-08-18T09:48:21.784Z,101425.08
2018-08-18T09:50:51.832Z,101430.60
2018-08-18T09:53:28.294Z,101421.62
2018-08-18T09:55:58.966Z,101424.98
2018-08-18T09:58:29.577Z,101425.27
2018-08-18T10:00:59.416Z,101419.13
2018-08-18T10:03:29.413Z,101425.33
2018-08-18T10:06:07.660Z,101425.72
2018-08-18T10:08:37.883Z,101427.30
2018-08-18T10:11:08.083Z,101414.95
2018-08-18T10:13:38.158Z,101425.21
2018-08-18T10:16:09.388Z,101434.99
2018-08-18T10:18:43.683Z,101435.33
2018-08-18T10:21:14.651Z,101428.52
2018-08-18T10:23:49.444Z,101435.97
2018-08-18T10:26:19.306Z,101428.61
2018-08-18T10:28:50.039Z,101435.81
2018-08-18T10:31:19.914Z,101424.88
2018-08-18T10:33:49.727Z,101425.66
2018-08-18T10:36:19.590Z,101430.67
2018-08-18T10:38:49.613Z,101425.48
2018-08-18T10:41:19.398Z,101422.42
2018-08-18T10:43:49.149Z,101430.27
2018-08-18T10:46:18.919Z,101420.69
2018-08-18T10:48:52.567Z,101417.78
2018-08-18T10:51:39.359Z,101410.37
2018-08-18T10:54:09.755Z,101408.77
2018-08-18T10:59:59.279Z,101407.98
2018-08-18T11:02:34.086Z,101404.65
2018-08-18T11:05:03.982Z,101406.28
2018-08-18T11:07:33.573Z,101403.11
2018-08-18T11:10:03.264Z,101390.39
2018-08-18T11:12:40.984Z,101406.83
2018-08-18T11:15:13.020Z,101407.82
2018-08-18T11:17:42.726Z,101408.18
2018-08-18T11:20:19.067Z,101405.89
2018-08-18T11:23:09.500Z,101417.76
2018-08-18T11:25:48.837Z,101412.20
2018-08-18T11:28:19.186Z,101405.80
2018-08-18T11:30:50.701Z,101403.61
2018-08-18T11:33:43.817Z,101407.80
2018-08-18T11:36:16.477Z,101402.31
2018-08-18T11:38:46.100Z,101398.84
2018-08-18T11:41:15.734Z,101396.30
2018-08-18T11:43:49.051Z,101397.00
2018-08-18T11:46:18.581Z,101393.56
2018-08-18T11:48:48.181Z,101392.17
2018-08-18T11:51:17.694Z,101394.93
2018-08-18T11:54:00.332Z,101385.75
2018-08-18T11:56:30.155Z,101384.67
2018-08-18T11:59:08.773Z,101383.38
2018-08-18T12:01:39.857Z,101379.73
2018-08-18T12:04:09.471Z,101383.92
2018-08-18T12:06:48.002Z,101383.59
2018-08-18T12:09:18.473Z,101383.95
2018-08-18T12:11:49.715Z,101377.40
2018-08-18T12:14:19.432Z,101385.59
2018-08-18T12:16:50.143Z,101374.09
2018-08-18T12:19:21.326Z,101376.17
2018-08-18T12:21:50.925Z,101380.28
2018-08-18T12:24:22.116Z,101375.06
2018-08-18T12:27:06.951Z,101373.52
2018-08-18T12:29:36.626Z,101379.06
2018-08-18T12:32:12.734Z,101377.16
2018-08-18T12:34:42.376Z,101370.77
2018-08-18T12:37:14.426Z,101377.99
2018-08-18T12:39:48.110Z,101372.44
2018-08-18T12:42:23.088Z,101364.81
2018-08-18T12:44:52.714Z,101370.49
2018-08-18T12:47:37.326Z,101362.72
2018-08-18T12:50:07.576Z,101354.30
2018-08-18T12:52:47.992Z,101349.05
2018-08-18T12:55:17.838Z,101347.87
2018-08-18T12:57:49.531Z,101346.53
2018-08-18T13:00:19.483Z,101348.52
2018-08-18T13:02:54.617Z,101343.95
2018-08-18T13:05:27.608Z,101343.92
2018-08-18T13:07:57.850Z,101346.30
2018-08-18T13:10:29.126Z,101346.59
2018-08-18T13:12:58.853Z,101324.54
2018-08-18T13:15:29.240Z,101337.12
2018-08-18T13:18:03.475Z,101332.63
2018-08-18T13:20:33.516Z,101331.20
2018-08-18T13:23:03.438Z,101336.55
2018-08-18T13:25:33.203Z,101330.84
2018-08-18T13:28:05.860Z,101335.14
2018-08-18T13:30:35.732Z,101328.78
2018-08-18T13:33:05.603Z,101325.28
2018-08-18T13:35:35.922Z,101325.02
2018-08-18T13:38:18.031Z,101319.17
2018-08-18T13:40:48.896Z,101326.45
2018-08-18T13:43:34.538Z,101323.42
2018-08-18T13:46:04.572Z,101319.64
2018-08-18T13:48:34.321Z,101322.16
2018-08-18T13:51:04.141Z,101315.24
2018-08-18T13:53:39.751Z,101313.70
2018-08-18T13:56:12.340Z,101312.50
2018-08-18T13:58:44.851Z,101306.95
2018-08-18T14:01:39.024Z,101299.31
2018-08-18T14:04:36.009Z,101308.48
2018-08-18T14:07:07.119Z,101299.31
2018-08-18T14:09:47.219Z,101294.54
2018-08-18T14:12:21.849Z,101293.28
2018-08-18T14:14:55.016Z,101289.88
2018-08-18T14:17:28.926Z,101293.88
2018-08-18T14:20:02.180Z,101289.05
2018-08-18T14:22:35.249Z,101300.83
2018-08-18T14:25:08.631Z,101299.42
2018-08-18T14:27:51.699Z,101298.80
2018-08-18T14:30:31.849Z,101292.22
2018-08-18T14:33:06.217Z,101287.58
2018-08-18T14:35:46.043Z,101292.44
2018-08-18T14:38:18.976Z,101291.67
2018-08-18T14:40:52.360Z,101291.37
2018-08-18T14:43:29.918Z,101296.42
2018-08-18T14:46:17.912Z,101297.41
2018-08-18T14:48:50.977Z,101297.30
2018-08-18T14:51:35.057Z,101216.67
2018-08-18T14:56:54.456Z,101282.53
2018-08-18T14:59:36.854Z,101295.86
2018-08-18T15:02:10.782Z,101289.05
2018-08-18T15:04:43.966Z,101282.36
2018-08-18T15:07:17.144Z,101292.05
2018-08-18T15:09:54.790Z,101295.86
2018-08-18T15:12:28.409Z,101290.86
2018-08-18T15:14:58.401Z,101289.92
2018-08-18T15:17:31.413Z,101281.59
2018-08-18T15:20:03.868Z,101277.27
2018-08-18T15:22:36.857Z,101277.37
2018-08-18T15:25:10.762Z,101288.53
2018-08-18T15:27:45.108Z,101278.88
2018-08-18T15:30:24.287Z,101254.69
2018-08-18T15:32:58.024Z,101288.11
2018-08-18T15:35:33.259Z,101281.54
2018-08-18T15:38:13.843Z,101277.23
2018-08-18T15:40:56.944Z,101262.55
2018-08-18T15:43:30.270Z,101276.74
2018-08-18T15:46:10.262Z,101271.88
2018-08-18T15:48:44.736Z,101267.91
2018-08-18T15:51:18.301Z,101273.31
2018-08-18T15:53:55.280Z,101261.77
2018-08-18T15:56:31.668Z,101265.48
2018-08-18T15:59:05.907Z,101259.88
2018-08-18T16:01:41.541Z,101261.49
2018-08-18T16:04:13.442Z,101256.74
2018-08-18T16:06:46.742Z,101252.84
2018-08-18T16:09:20.087Z,101257.27
2018-08-18T16:12:17.864Z,101261.45
2018-08-18T16:15:01.954Z,101264.66
2018-08-18T16:17:35.333Z,101263.48
2018-08-18T16:23:29.712Z,101260.90
2018-08-18T16:26:03.918Z,101265.69
2018-08-18T16:28:38.184Z,101262.28
2018-08-18T16:31:11.704Z,101272.98
2018-08-18T16:33:47.680Z,101265.19
2018-08-18T16:36:21.079Z,101263.50
2018-08-18T16:38:54.685Z,101267.50
2018-08-18T16:41:28.718Z,101270.37
2018-08-18T16:44:01.673Z,101262.80
2018-08-18T16:46:35.373Z,101274.93
2018-08-18T16:49:08.743Z,101268.48
2018-08-18T16:51:42.706Z,101267.73
2018-08-18T16:54:25.407Z,101279.55
2018-08-18T16:56:58.621Z,101276.68
2018-08-18T16:59:32.148Z,101281.90
2018-08-18T17:02:06.261Z,101276.00
2018-08-18T17:04:40.993Z,101271.63
2018-08-18T17:07:23.683Z,101269.58
2018-08-18T17:09:53.419Z,101268.23
2018-08-18T17:12:32.629Z,101270.16
2018-08-18T17:15:05.719Z,101270.29
2018-08-18T17:17:38.492Z,101272.48
2018-08-18T17:20:12.284Z,101279.97
2018-08-18T17:22:46.942Z,101285.34
2018-08-18T17:25:19.549Z,101285.07
2018-08-18T17:27:53.817Z,101285.03
2018-08-18T17:30:33.865Z,101290.30
2018-08-18T17:33:10.528Z,101289.11
2018-08-18T17:35:46.921Z,101294.89
2018-08-18T17:38:23.726Z,101291.45
2018-08-18T17:40:59.780Z,101296.59
2018-08-18T17:43:38.974Z,101292.71
2018-08-18T17:46:16.601Z,101292.91
2018-08-18T17:48:57.015Z,101297.73
2018-08-18T17:51:33.182Z,101304.48
2018-08-18T17:54:05.966Z,101304.90
2018-08-18T17:56:36.781Z,101298.50
2018-08-18T17:59:09.748Z,101304.16
2018-08-18T18:02:01.262Z,101302.62
2018-08-18T18:04:33.536Z,101302.00
2018-08-18T18:07:05.025Z,101301.22
2018-08-18T18:09:36.126Z,101309.14
2018-08-18T18:12:27.441Z,101306.21
2018-08-18T18:15:02.132Z,101306.38
2018-08-18T18:20:28.743Z,101316.08
2018-08-18T18:23:06.978Z,101313.19
2018-08-18T18:25:49.631Z,101320.70
2018-08-18T18:28:24.990Z,101317.39
2018-08-18T18:30:59.596Z,101326.22
2018-08-18T18:33:31.420Z,101321.30
2018-08-18T18:36:05.101Z,101325.14
2018-08-18T18:39:13.241Z,101323.71
2018-08-18T18:41:48.088Z,101326.53
2018-08-18T18:44:27.061Z,101334.92
2018-08-18T18:46:58.836Z,101334.38
2018-08-18T18:49:35.720Z,101345.17
2018-08-18T18:52:09.278Z,101347.18
2018-08-18T18:54:42.074Z,101351.08
2018-08-18T18:57:12.022Z,101355.70
2018-08-18T18:59:56.202Z,101359.52
2018-08-18T19:02:39.059Z,101367.16
2018-08-18T19:05:27.742Z,101369.04
2018-08-18T19:08:16.362Z,101366.19
2018-08-18T19:10:46.280Z,101372.11
2018-08-18T19:13:29.613Z,101368.05
2018-08-18T19:16:10.850Z,101376.52
2018-08-18T19:18:42.213Z,101378.70
2018-08-18T19:21:14.881Z,101377.22
2018-08-18T19:23:51.806Z,101386.55
2018-08-18T19:26:22.360Z,101391.17
2018-08-18T19:28:53.677Z,101388.73
2018-08-18T19:31:28.942Z,101390.91
2018-08-18T19:34:13.131Z,101396.09
2018-08-18T19:37:01.567Z,101397.95
2018-08-18T19:39:32.926Z,101398.06
2018-08-18T19:42:14.630Z,101402.31
2018-08-18T19:44:47.390Z,101406.79
2018-08-18T19:47:31.868Z,101408.75
2018-08-18T19:50:08.041Z,101404.08
2018-08-18T19:52:38.962Z,101401.70
2018-08-18T19:55:11.896Z,101408.27
2018-08-18T19:57:46.527Z,101415.91
2018-08-18T20:00:28.477Z,101411.70
2018-08-18T20:03:10.907Z,101409.44
2018-08-18T20:05:40.821Z,101403.28
2018-08-18T20:08:25.612Z,101405.73
2018-08-18T20:11:00.356Z,101403.92
2018-08-18T20:13:32.606Z,101399.64
2018-08-18T20:16:08.140Z,101407.75
2018-08-18T20:18:45.715Z,101406.31
2018-08-18T20:21:18.698Z,101399.96
2018-08-18T20:23:57.276Z,101403.69
2018-08-18T20:26:35.872Z,101404.20
2018-08-18T20:29:09.583Z,101405.64
2018-08-18T20:31:56.171Z,101402.87
2018-08-18T20:37:29.001Z,101402.14
2018-08-18T20:40:06.897Z,101395.48
2018-08-18T20:42:42.025Z,101404.69
2018-08-18T20:45:17.737Z,101398.14
2018-08-18T20:47:50.895Z,101402.66
2018-08-18T20:50:24.567Z,101402.05
2018-08-18T20:53:07.186Z,101399.78
2018-08-18T20:55:37.236Z,101405.10
2018-08-18T20:58:07.101Z,101412.00
2018-08-18T21:00:36.917Z,101409.41
2018-08-18T21:03:15.667Z,101415.25
2018-08-18T21:05:45.676Z,101412.09
2018-08-18T21:08:22.734Z,101411.75
2018-08-18T21:11:01.265Z,101410.99
2018-08-18T21:13:34.473Z,101411.98
2018-08-18T21:16:04.379Z,101421.30
2018-08-18T21:18:39.133Z,101418.16
2018-08-18T21:21:43.306Z,101420.69
2018-08-18T21:24:14.055Z,101424.43
2018-08-18T21:26:48.230Z,101415.84
2018-08-18T21:29:17.919Z,101419.25
2018-08-18T21:31:50.931Z,101423.48
2018-08-18T21:34:24.474Z,101426.37
2018-08-18T21:36:54.519Z,101432.64
2018-08-18T21:39:24.271Z,101422.75
2018-08-18T21:42:06.448Z,101428.41
2018-08-18T21:44:36.114Z,101434.58
2018-08-18T21:47:12.446Z,101435.91
2018-08-18T21:49:48.656Z,101435.54
2018-08-18T21:52:24.649Z,101434.45
2018-08-18T21:55:04.112Z,101429.87
2018-08-18T21:57:52.548Z,101434.34
2018-08-18T22:00:23.221Z,101434.34
2018-08-18T22:02:53.550Z,101442.78
2018-08-18T22:05:23.214Z,101405.02
2018-08-18T22:07:54.871Z,101446.66
2018-08-18T22:10:26.432Z,101439.50
2018-08-18T22:13:01.475Z,101444.33
2018-08-18T22:18:21.726Z,101446.91
2018-08-18T22:20:53.611Z,101443.55
2018-08-18T22:23:28.391Z,101451.80
2018-08-18T22:26:01.487Z,101458.11
2018-08-18T22:28:31.165Z,101458.34
2018-08-18T22:31:02.490Z,101460.55
2018-08-18T22:33:39.314Z,101454.27
2018-08-18T22:36:08.985Z,101457.50
2018-08-18T22:38:39.358Z,101463.30
2018-08-18T22:41:09.077Z,101457.19
2018-08-18T22:43:39.277Z,101464.30
2018-08-18T22:46:11.786Z,101467.53
2018-08-18T22:48:42.102Z,101463.78
2018-08-18T22:51:11.915Z,101458.69
2018-08-18T22:53:44.265Z,101462.64
2018-08-18T22:56:17.969Z,101466.38
2018-08-18T22:59:04.858Z,101473.61
2018-08-18T23:01:37.256Z,101471.68
2018-08-18T23:04:44.772Z,101472.72
2018-08-18T23:07:17.094Z,101477.96
2018-08-18T23:09:47.221Z,101475.37
2018-08-18T23:12:16.803Z,101481.15
2018-08-18T23:14:46.430Z,101481.61
2018-08-18T23:17:16.032Z,101478.67
2018-08-18T23:19:45.939Z,101476.92
2018-08-18T23:22:38.064Z,101486.80
2018-08-18T23:25:07.754Z,101476.45
2018-08-18T23:27:39.031Z,101469.81
2018-08-18T23:30:10.226Z,101467.73
2018-08-18T23:32:44.151Z,101471.57
2018-08-18T23:35:14.311Z,101466.35
2018-08-18T23:37:44.202Z,101470.94
2018-08-18T23:40:14.457Z,101467.17
2018-08-18T23:42:46.818Z,101468.84
2018-08-18T23:45:18.073Z,101465.20
2018-08-18T23:47:58.496Z,101467.20
2018-08-18T23:50:28.497Z,101458.73
2018-08-18T23:53:04.951Z,101465.19
2018-08-18T23:55:40.167Z,101459.16
2018-08-18T23:58:12.617Z,101446.50
